sensor_id;sensor_type;location;lat;lon;timestamp;P1;P2;P0
61879;PMS7003;47817;52.798;27.544;2023-07-31T00:00:43;2.8;2.6;2.2
61879;PMS7003;47817;52.798;27.544;2023-07-31T00:05:49;2.5;2.5;2.3
61879;PMS7003;47817;52.798;27.544;2023-07-31T00:10:43;3.6;2.6;2.2
61879;PMS7003;47817;52.798;27.544;2023-07-31T00:15:59;2.6;2.6;2.2
61879;PMS7003;47817;52.798;27.544;2023-07-31T00:20:13;3.6;3.6;3
61879;PMS7003;47817;52.798;27.544;2023-07-31T00:25:45;3.8;3;2.6
61879;PMS7003;47817;52.798;27.544;2023-07-31T00:30:49;4.2;3;2.8
61879;PMS7003;47817;52.798;27.544;2023-07-31T00:35:59;3.8;3.6;3
61879;PMS7003;47817;52.798;27.544;2023-07-31T00:40:49;3.5;3.5;3
61879;PMS7003;47817;52.798;27.544;2023-07-31T00:45:21;3.6;3.4;2.8
61879;PMS7003;47817;52.798;27.544;2023-07-31T00:50:27;4.2;3.4;2.6
61879;PMS7003;47817;52.798;27.544;2023-07-31T00:55:13;2.8;2.8;2.6
61879;PMS7003;47817;52.798;27.544;2023-07-31T01:00:59;4.4;4;3.2
61879;PMS7003;47817;52.798;27.544;2023-07-31T01:05:13;4.6;4;3.4
61879;PMS7003;47817;52.798;27.544;2023-07-31T01:10:28;5.4;4.4;3.6
61879;PMS7003;47817;52.798;27.544;2023-07-31T01:15:59;4.8;4;3.6
61879;PMS7003;47817;52.798;27.544;2023-07-31T01:21:02;6.8;5.6;4.4
61879;PMS7003;47817;52.798;27.544;2023-07-31T01:25:16;6;4.8;4
61879;PMS7003;47817;52.798;27.544;2023-07-31T01:30:14;5.8;5;4
61879;PMS7003;47817;52.798;27.544;2023-07-31T01:35:29;5.2;4.2;4.2
61879;PMS7003;47817;52.798;27.544;2023-07-31T01:40:50;6.8;5.8;4.8
61879;PMS7003;47817;52.798;27.544;2023-07-31T01:45:33;7.2;5.8;4.6
61879;PMS7003;47817;52.798;27.544;2023-07-31T01:50:27;6.4;5.4;5
61879;PMS7003;47817;52.798;27.544;2023-07-31T01:55:59;8;6.8;4.8
61879;PMS7003;47817;52.798;27.544;2023-07-31T02:00:13;21.8;14.5;8.3
61879;PMS7003;47817;52.798;27.544;2023-07-31T02:05:33;19.2;13.4;8.8
61879;PMS7003;47817;52.798;27.544;2023-07-31T02:10:59;8.2;6.8;5.2
61879;PMS7003;47817;52.798;27.544;2023-07-31T02:15:49;10.2;7.2;5.4
61879;PMS7003;47817;52.798;27.544;2023-07-31T02:20:33;6.8;5.2;4.6
61879;PMS7003;47817;52.798;27.544;2023-07-31T02:25:13;5.8;4.8;4.6
61879;PMS7003;47817;52.798;27.544;2023-07-31T02:30:13;12;8.6;5.8
61879;PMS7003;47817;52.798;27.544;2023-07-31T02:35:13;10.3;8.5;6.3
61879;PMS7003;47817;52.798;27.544;2023-07-31T02:40:59;8.2;6.8;5
61879;PMS7003;47817;52.798;27.544;2023-07-31T02:45:59;8.4;7.4;5.4
61879;PMS7003;47817;52.798;27.544;2023-07-31T02:50:43;11.8;9.4;6.8
61879;PMS7003;47817;52.798;27.544;2023-07-31T02:55:59;12.2;9.8;6.8
61879;PMS7003;47817;52.798;27.544;2023-07-31T03:00:27;11.4;9.4;7.4
61879;PMS7003;47817;52.798;27.544;2023-07-31T03:05:19;12;9.2;6.8
61879;PMS7003;47817;52.798;27.544;2023-07-31T03:10:19;12.2;10.4;7.6
61879;PMS7003;47817;52.798;27.544;2023-07-31T03:15:33;10;8;6.8
61879;PMS7003;47817;52.798;27.544;2023-07-31T03:20:13;7.4;6;4.8
61879;PMS7003;47817;52.798;27.544;2023-07-31T03:25:54;6.2;5.8;4.6
61879;PMS7003;47817;52.798;27.544;2023-07-31T03:30:43;6.6;5.2;4.2
61879;PMS7003;47817;52.798;27.544;2023-07-31T03:35:19;8.3;7;5.8
61879;PMS7003;47817;52.798;27.544;2023-07-31T03:40:13;7.4;6.4;5
61879;PMS7003;47817;52.798;27.544;2023-07-31T03:45:59;8.6;6.6;5.6
61879;PMS7003;47817;52.798;27.544;2023-07-31T03:50:59;8.6;6.6;5
61879;PMS7003;47817;52.798;27.544;2023-07-31T03:55:59;8.8;6.8;5.8
61879;PMS7003;47817;52.798;27.544;2023-07-31T04:00:27;10.4;7.8;6.2
61879;PMS7003;47817;52.798;27.544;2023-07-31T04:05:59;11.8;8.5;6.8
61879;PMS7003;47817;52.798;27.544;2023-07-31T04:10:27;8.6;7.6;6
61879;PMS7003;47817;52.798;27.544;2023-07-31T04:15:29;9.6;7.8;6
61879;PMS7003;47817;52.798;27.544;2023-07-31T04:20:43;6.4;5.8;5
61879;PMS7003;47817;52.798;27.544;2023-07-31T04:25:43;7.4;6.2;5.4
61879;PMS7003;47817;52.798;27.544;2023-07-31T04:30:49;9.4;7.6;5.8
61879;PMS7003;47817;52.798;27.544;2023-07-31T04:35:48;8.8;7;6.6
61879;PMS7003;47817;52.798;27.544;2023-07-31T04:40:59;8.8;6.8;5.5
61879;PMS7003;47817;52.798;27.544;2023-07-31T04:45:13;7.4;7;5.4
61879;PMS7003;47817;52.798;27.544;2023-07-31T04:50:59;7.2;6.4;5.2
61879;PMS7003;47817;52.798;27.544;2023-07-31T04:55:33;8;6.4;5.2
61879;PMS7003;47817;52.798;27.544;2023-07-31T05:00:57;9.4;7;5.8
61879;PMS7003;47817;52.798;27.544;2023-07-31T05:05:47;11;7.4;6.4
61879;PMS7003;47817;52.798;27.544;2023-07-31T05:10:41;9.8;8.2;6.8
61879;PMS7003;47817;52.798;27.544;2023-07-31T05:15:13;9.6;7;6
61879;PMS7003;47817;52.798;27.544;2023-07-31T05:20:13;8.2;6.4;6
61879;PMS7003;47817;52.798;27.544;2023-07-31T05:25:43;6.6;6;5.2
61879;PMS7003;47817;52.798;27.544;2023-07-31T05:30:31;8.6;6.6;5.2
61879;PMS7003;47817;52.798;27.544;2023-07-31T05:35:31;7.2;5.6;5.4
61879;PMS7003;47817;52.798;27.544;2023-07-31T05:40:55;8.3;6.5;5.3
61879;PMS7003;47817;52.798;27.544;2023-07-31T05:45:57;8.4;6.6;5.4
61879;PMS7003;47817;52.798;27.544;2023-07-31T05:50:27;8.6;7;6
61879;PMS7003;47817;52.798;27.544;2023-07-31T05:55:13;9.4;7.4;6.6
61879;PMS7003;47817;52.798;27.544;2023-07-31T06:00:47;9.5;7.8;6.3
61879;PMS7003;47817;52.798;27.544;2023-07-31T06:05:33;7.4;6.4;5.4
61879;PMS7003;47817;52.798;27.544;2023-07-31T06:10:13;8;5.6;4.4
61879;PMS7003;47817;52.798;27.544;2023-07-31T06:15:21;6.6;5.6;4.8
61879;PMS7003;47817;52.798;27.544;2023-07-31T06:20:57;4.6;3.8;3.6
61879;PMS7003;47817;52.798;27.544;2023-07-31T06:25:13;5;4.4;3.6
61879;PMS7003;47817;52.798;27.544;2023-07-31T06:30:31;4.4;4;2.8
61879;PMS7003;47817;52.798;27.544;2023-07-31T06:35:57;5.6;4.6;4.2
61879;PMS7003;47817;52.798;27.544;2023-07-31T06:40:47;4;3.2;3
61879;PMS7003;47817;52.798;27.544;2023-07-31T06:45:17;2.5;2.5;2.3
61879;PMS7003;47817;52.798;27.544;2023-07-31T06:50:29;5.2;4;3.2
61879;PMS7003;47817;52.798;27.544;2023-07-31T06:55:17;2.8;2.4;2.4
61879;PMS7003;47817;52.798;27.544;2023-07-31T07:00:17;7.2;6.4;5.4
61879;PMS7003;47817;52.798;27.544;2023-07-31T07:05:28;3.6;3.2;2.8
61879;PMS7003;47817;52.798;27.544;2023-07-31T07:10:57;5.4;3.6;3
61879;PMS7003;47817;52.798;27.544;2023-07-31T07:15:41;4;3.2;2.8
61879;PMS7003;47817;52.798;27.544;2023-07-31T07:20:57;4.3;3;2.5
61879;PMS7003;47817;52.798;27.544;2023-07-31T07:25:13;3.4;2.4;1.8
61879;PMS7003;47817;52.798;27.544;2023-07-31T07:30:13;2.6;2.4;1.8
61879;PMS7003;47817;52.798;27.544;2023-07-31T07:35:23;3;2.2;1.6
61879;PMS7003;47817;52.798;27.544;2023-07-31T07:40:27;2.8;2.8;2.6
61879;PMS7003;47817;52.798;27.544;2023-07-31T07:45:33;3.8;3.4;2.8
61879;PMS7003;47817;52.798;27.544;2023-07-31T07:50:38;4.2;3.4;2.6
61879;PMS7003;47817;52.798;27.544;2023-07-31T07:55:41;4.4;3.6;2.6
61879;PMS7003;47817;52.798;27.544;2023-07-31T08:00:41;3.8;3.2;2.6
61879;PMS7003;47817;52.798;27.544;2023-07-31T08:05:13;3;2.8;2.5
61879;PMS7003;47817;52.798;27.544;2023-07-31T08:10:57;3.4;3.2;2.6
61879;PMS7003;47817;52.798;27.544;2023-07-31T08:15:57;3.4;2.8;2
61879;PMS7003;47817;52.798;27.544;2023-07-31T08:20:17;4.4;2.8;2.2
61879;PMS7003;47817;52.798;27.544;2023-07-31T08:25:41;3.4;2.8;2.6
61879;PMS7003;47817;52.798;27.544;2023-07-31T08:30:57;3.6;2.8;2.2
61879;PMS7003;47817;52.798;27.544;2023-07-31T08:35:13;3.4;2.6;2.4
61879;PMS7003;47817;52.798;27.544;2023-07-31T08:40:13;2.6;2.4;1.8
61879;PMS7003;47817;52.798;27.544;2023-07-31T08:45:41;3;2.4;1.8
61879;PMS7003;47817;52.798;27.544;2023-07-31T08:50:47;3.8;2.8;2
61879;PMS7003;47817;52.798;27.544;2023-07-31T08:55:57;3.6;3;2.4
61879;PMS7003;47817;52.798;27.544;2023-07-31T09:00:41;2.4;2.4;2.4
61879;PMS7003;47817;52.798;27.544;2023-07-31T09:05:57;4.8;3.4;2.8
61879;PMS7003;47817;52.798;27.544;2023-07-31T09:10:31;3.2;2.8;2.4
61879;PMS7003;47817;52.798;27.544;2023-07-31T09:15:57;3.4;3;2.2
61879;PMS7003;47817;52.798;27.544;2023-07-31T09:20:13;4.2;3.4;2.6
61879;PMS7003;47817;52.798;27.544;2023-07-31T09:25:58;3;2.4;2
61879;PMS7003;47817;52.798;27.544;2023-07-31T09:30:48;5.8;4.5;3.8
61879;PMS7003;47817;52.798;27.544;2023-07-31T09:35:41;4;2.8;2.4
61879;PMS7003;47817;52.798;27.544;2023-07-31T09:40:28;3.2;2.2;1.8
61879;PMS7003;47817;52.798;27.544;2023-07-31T09:45:17;3.6;3;2.6
61879;PMS7003;47817;52.798;27.544;2023-07-31T09:50:55;6;4.8;4
61879;PMS7003;47817;52.798;27.544;2023-07-31T09:55:13;4;2.8;2.4
61879;PMS7003;47817;52.798;27.544;2023-07-31T10:00:31;3.5;2.3;2
61879;PMS7003;47817;52.798;27.544;2023-07-31T10:05:57;3.4;3.4;2.8
61879;PMS7003;47817;52.798;27.544;2023-07-31T10:10:41;4.2;2.6;2.4
61879;PMS7003;47817;52.798;27.544;2023-07-31T10:15:13;2.6;2.4;2
61879;PMS7003;47817;52.798;27.544;2023-07-31T10:20:17;4.8;4;3.2
61879;PMS7003;47817;52.798;27.544;2023-07-31T10:25:47;3;2.8;2.6
61879;PMS7003;47817;52.798;27.544;2023-07-31T10:30:47;2.4;2.2;1.8
61879;PMS7003;47817;52.798;27.544;2023-07-31T10:35:41;2.2;2;1.2
61879;PMS7003;47817;52.798;27.544;2023-07-31T10:40:26;3;2.6;2.4
61879;PMS7003;47817;52.798;27.544;2023-07-31T10:45:55;3;2.4;2.2
61879;PMS7003;47817;52.798;27.544;2023-07-31T10:50:15;2.4;2.2;2.2
61879;PMS7003;47817;52.798;27.544;2023-07-31T10:55:15;4;2;1.8
61879;PMS7003;47817;52.798;27.544;2023-07-31T11:00:55;3.2;2.6;2
61879;PMS7003;47817;52.798;27.544;2023-07-31T11:05:48;3;2;1.4
61879;PMS7003;47817;52.798;27.544;2023-07-31T11:10:15;3.4;2.4;2.4
61879;PMS7003;47817;52.798;27.544;2023-07-31T11:15:17;3.2;3.2;2.6
61879;PMS7003;47817;52.798;27.544;2023-07-31T11:20:41;3.5;3;2.8
61879;PMS7003;47817;52.798;27.544;2023-07-31T11:25:14;3.6;2.8;2.4
61879;PMS7003;47817;52.798;27.544;2023-07-31T11:30:31;3.4;3.2;2.8
61879;PMS7003;47817;52.798;27.544;2023-07-31T11:35:57;3.6;3.2;2.8
61879;PMS7003;47817;52.798;27.544;2023-07-31T11:40:19;4;3.2;2.8
61879;PMS7003;47817;52.798;27.544;2023-07-31T11:45:41;3.2;3.2;2.4
61879;PMS7003;47817;52.798;27.544;2023-07-31T11:50:13;3.2;2.8;2.4
61879;PMS7003;47817;52.798;27.544;2023-07-31T11:55:13;2.8;2.6;2.2
61879;PMS7003;47817;52.798;27.544;2023-07-31T12:00:13;4;2.5;2.3
61879;PMS7003;47817;52.798;27.544;2023-07-31T12:05:27;3.6;3.2;2.6
61879;PMS7003;47817;52.798;27.544;2023-07-31T12:10:43;4.4;3.2;3
61879;PMS7003;47817;52.798;27.544;2023-07-31T12:15:42;2.8;2.4;2.4
61879;PMS7003;47817;52.798;27.544;2023-07-31T12:20:58;3.4;3;2.2
61879;PMS7003;47817;52.798;27.544;2023-07-31T12:25:15;3.4;2.4;2
61879;PMS7003;47817;52.798;27.544;2023-07-31T12:30:33;2.8;2.8;2
61879;PMS7003;47817;52.798;27.544;2023-07-31T12:35:57;3.6;2.4;2
61879;PMS7003;47817;52.798;27.544;2023-07-31T12:40:43;2.8;2;1.8
61879;PMS7003;47817;52.798;27.544;2023-07-31T12:45:43;2;1.8;1.8
61879;PMS7003;47817;52.798;27.544;2023-07-31T12:50:41;3.4;2.6;1.8
61879;PMS7003;47817;52.798;27.544;2023-07-31T12:55:57;3;2.4;1.8
61879;PMS7003;47817;52.798;27.544;2023-07-31T13:00:29;2.5;1.8;1.8
61879;PMS7003;47817;52.798;27.544;2023-07-31T13:05:21;2.6;2.2;1.8
61879;PMS7003;47817;52.798;27.544;2023-07-31T13:10:41;2.8;2.4;2
61879;PMS7003;47817;52.798;27.544;2023-07-31T13:15:57;4.6;4.4;4.2
61879;PMS7003;47817;52.798;27.544;2023-07-31T13:20:57;3.8;3;2.8
61879;PMS7003;47817;52.798;27.544;2023-07-31T13:25:13;3.2;2.4;1.6
61879;PMS7003;47817;52.798;27.544;2023-07-31T13:30:57;3.8;3;2.5
61879;PMS7003;47817;52.798;27.544;2023-07-31T13:35:13;3.6;2.4;2.2
61879;PMS7003;47817;52.798;27.544;2023-07-31T13:40:17;2;1.8;1.6
61879;PMS7003;47817;52.798;27.544;2023-07-31T13:45:41;2;1.4;1.2
61879;PMS7003;47817;52.798;27.544;2023-07-31T13:50:39;1.6;1.6;1.4
61879;PMS7003;47817;52.798;27.544;2023-07-31T13:55:47;1.8;1.6;1.2
61879;PMS7003;47817;52.798;27.544;2023-07-31T14:00:33;2;1.8;1.6
61879;PMS7003;47817;52.798;27.544;2023-07-31T14:05:57;2.8;2.5;1.8
61879;PMS7003;47817;52.798;27.544;2023-07-31T14:10:17;2.4;2.2;1.8
61879;PMS7003;47817;52.798;27.544;2023-07-31T14:15:57;3.6;3.4;3
61879;PMS7003;47817;52.798;27.544;2023-07-31T14:20:31;3.8;3.4;2.8
61879;PMS7003;47817;52.798;27.544;2023-07-31T14:25:57;4.4;3.4;3
61879;PMS7003;47817;52.798;27.544;2023-07-31T14:30:47;3.8;3.2;2.6
61879;PMS7003;47817;52.798;27.544;2023-07-31T14:35:41;3.6;3;2.6
61879;PMS7003;47817;52.798;27.544;2023-07-31T14:40:27;5.2;4.2;3.8
61879;PMS7003;47817;52.798;27.544;2023-07-31T14:45:17;6.2;3.8;2.8
61879;PMS7003;47817;52.798;27.544;2023-07-31T14:50:47;6.8;5.8;4.8
61879;PMS7003;47817;52.798;27.544;2023-07-31T14:55:33;6.6;6.4;5.2
61879;PMS7003;47817;52.798;27.544;2023-07-31T15:00:31;6;5;4.3
61879;PMS7003;47817;52.798;27.544;2023-07-31T15:05:13;6;5.4;4.2
61879;PMS7003;47817;52.798;27.544;2023-07-31T15:10:57;6.8;5.6;4.2
61879;PMS7003;47817;52.798;27.544;2023-07-31T15:15:13;6.6;5.8;5.4
61879;PMS7003;47817;52.798;27.544;2023-07-31T15:20:31;7.6;6;4.8
61879;PMS7003;47817;52.798;27.544;2023-07-31T15:25:57;6;5.4;4.6
61879;PMS7003;47817;52.798;27.544;2023-07-31T15:30:47;6.8;5.4;5
61879;PMS7003;47817;52.798;27.544;2023-07-31T15:35:13;5.3;5.3;4.5
61879;PMS7003;47817;52.798;27.544;2023-07-31T15:40:25;4.4;4.2;3.4
61879;PMS7003;47817;52.798;27.544;2023-07-31T15:45:17;6.8;5.4;4.8
61879;PMS7003;47817;52.798;27.544;2023-07-31T15:50:31;5.8;5.4;4.4
61879;PMS7003;47817;52.798;27.544;2023-07-31T15:55:31;5.2;4.2;3.8
61879;PMS7003;47817;52.798;27.544;2023-07-31T16:00:49;4.8;4;3.6
61879;PMS7003;47817;52.798;27.544;2023-07-31T16:05:41;5.8;4.6;3.8
61879;PMS7003;47817;52.798;27.544;2023-07-31T16:10:57;4.3;4;3.5
61879;PMS7003;47817;52.798;27.544;2023-07-31T16:15:37;4.4;3.8;3.4
61879;PMS7003;47817;52.798;27.544;2023-07-31T16:20:17;3.6;2.6;2
61879;PMS7003;47817;52.798;27.544;2023-07-31T16:25:17;4.4;3.2;2
61879;PMS7003;47817;52.798;27.544;2023-07-31T16:30:31;1.8;1.4;1.4
61879;PMS7003;47817;52.798;27.544;2023-07-31T16:35:31;3;2.2;1.4
61879;PMS7003;47817;52.798;27.544;2023-07-31T16:40:41;1;1;0.8
61879;PMS7003;47817;52.798;27.544;2023-07-31T16:45:39;1.2;1;0.6
61879;PMS7003;47817;52.798;27.544;2023-07-31T16:50:13;1.8;1.4;1.4
61879;PMS7003;47817;52.798;27.544;2023-07-31T16:55:17;1.3;1.3;1
61879;PMS7003;47817;52.798;27.544;2023-07-31T17:00:57;2;1.6;1
61879;PMS7003;47817;52.798;27.544;2023-07-31T17:05:57;2.4;1.8;1.4
61879;PMS7003;47817;52.798;27.544;2023-07-31T17:10:27;2;2;1.4
61879;PMS7003;47817;52.798;27.544;2023-07-31T17:15:41;3.2;2.4;2
61879;PMS7003;47817;52.798;27.544;2023-07-31T17:20:39;2.6;2.2;1.8
61879;PMS7003;47817;52.798;27.544;2023-07-31T17:25:27;2.4;2;1.4
61879;PMS7003;47817;52.798;27.544;2023-07-31T17:30:13;7;5.8;4.5
61879;PMS7003;47817;52.798;27.544;2023-07-31T17:35:29;6;4.4;3.6
61879;PMS7003;47817;52.798;27.544;2023-07-31T17:40:57;4.4;3.6;2.8
61879;PMS7003;47817;52.798;27.544;2023-07-31T17:45:55;5;4;3
61879;PMS7003;47817;52.798;27.544;2023-07-31T17:50:13;7;6;4.2
61879;PMS7003;47817;52.798;27.544;2023-07-31T17:55:59;11.6;9.8;8.6
61879;PMS7003;47817;52.798;27.544;2023-07-31T18:00:31;11.8;8.8;6.8
61879;PMS7003;47817;52.798;27.544;2023-07-31T18:05:17;17.8;13.6;10.4
61879;PMS7003;47817;52.798;27.544;2023-07-31T18:10:43;16;12.4;10.2
61879;PMS7003;47817;52.798;27.544;2023-07-31T18:15:43;11.5;10;9.3
61879;PMS7003;47817;52.798;27.544;2023-07-31T18:20:49;7.6;6.6;6
61879;PMS7003;47817;52.798;27.544;2023-07-31T18:25:47;7.4;5.4;4.8
61879;PMS7003;47817;52.798;27.544;2023-07-31T18:30:59;5;4;3.8
61879;PMS7003;47817;52.798;27.544;2023-07-31T18:35:31;5.4;4.6;3.4
61879;PMS7003;47817;52.798;27.544;2023-07-31T18:40:59;7;5.4;4
61879;PMS7003;47817;52.798;27.544;2023-07-31T18:45:33;4.6;3.6;3
61879;PMS7003;47817;52.798;27.544;2023-07-31T18:50:59;4.6;4.4;3.2
61879;PMS7003;47817;52.798;27.544;2023-07-31T18:55:49;6.8;6.2;5.4
61879;PMS7003;47817;52.798;27.544;2023-07-31T19:00:43;5.2;4.2;3.2
61879;PMS7003;47817;52.798;27.544;2023-07-31T19:05:17;5.8;5;3.8
61879;PMS7003;47817;52.798;27.544;2023-07-31T19:10:27;6.6;6.2;5.2
61879;PMS7003;47817;52.798;27.544;2023-07-31T19:15:59;7;6;5.5
61879;PMS7003;47817;52.798;27.544;2023-07-31T19:20:13;5.4;4.2;3
61879;PMS7003;47817;52.798;27.544;2023-07-31T19:25:31;6.6;4.6;4
61879;PMS7003;47817;52.798;27.544;2023-07-31T19:30:59;5.8;4.8;3.8
61879;PMS7003;47817;52.798;27.544;2023-07-31T19:35:59;7.4;6.4;5.2
61879;PMS7003;47817;52.798;27.544;2023-07-31T19:40:14;5;4;3.6
61879;PMS7003;47817;52.798;27.544;2023-07-31T19:45:13;6.4;4.8;3.8
61879;PMS7003;47817;52.798;27.544;2023-07-31T19:50:59;4.4;3.8;3
61879;PMS7003;47817;52.798;27.544;2023-07-31T19:55:49;7;5.8;4.6
61879;PMS7003;47817;52.798;27.544;2023-07-31T20:00:27;4.8;4.8;4
61879;PMS7003;47817;52.798;27.544;2023-07-31T20:05:24;5.8;4.8;3.5
61879;PMS7003;47817;52.798;27.544;2023-07-31T20:10:25;4.8;4;3.8
61879;PMS7003;47817;52.798;27.544;2023-07-31T20:15:29;5.2;4.4;3.8
61879;PMS7003;47817;52.798;27.544;2023-07-31T20:20:33;4.8;4.6;3.8
61879;PMS7003;47817;52.798;27.544;2023-07-31T20:25:59;25.8;18.6;12.4
61879;PMS7003;47817;52.798;27.544;2023-07-31T20:30:42;35.6;28.8;19.8
61879;PMS7003;47817;52.798;27.544;2023-07-31T20:35:59;40.2;31.8;22
61879;PMS7003;47817;52.798;27.544;2023-07-31T20:40:39;16.6;13.8;10.4
61879;PMS7003;47817;52.798;27.544;2023-07-31T20:45:26;8.8;7.8;6.2
61879;PMS7003;47817;52.798;27.544;2023-07-31T20:50:17;5;4;3.6
61879;PMS7003;47817;52.798;27.544;2023-07-31T20:55:27;4.4;3.6;3
61879;PMS7003;47817;52.798;27.544;2023-07-31T21:00:27;4.3;3.5;2.8
61879;PMS7003;47817;52.798;27.544;2023-07-31T21:05:48;4;3;2.6
61879;PMS7003;47817;52.798;27.544;2023-07-31T21:10:41;4;3.4;3
61879;PMS7003;47817;52.798;27.544;2023-07-31T21:15:17;3.4;3;2.4
61879;PMS7003;47817;52.798;27.544;2023-07-31T21:20:17;5.2;3.6;3
61879;PMS7003;47817;52.798;27.544;2023-07-31T21:25:59;4.4;3.6;2.8
61879;PMS7003;47817;52.798;27.544;2023-07-31T21:30:57;4.5;4;3.8
61879;PMS7003;47817;52.798;27.544;2023-07-31T21:35:31;4.2;4;3.4
61879;PMS7003;47817;52.798;27.544;2023-07-31T21:40:33;4;3.8;2.6
61879;PMS7003;47817;52.798;27.544;2023-07-31T21:45:57;4;3.4;2.8
61879;PMS7003;47817;52.798;27.544;2023-07-31T21:50:13;4.8;3.8;3
61879;PMS7003;47817;52.798;27.544;2023-07-31T21:55:17;3.8;3.4;2.8
61879;PMS7003;47817;52.798;27.544;2023-07-31T22:00:43;4.2;3.4;2.6
61879;PMS7003;47817;52.798;27.544;2023-07-31T22:05:59;4.2;3.4;3.2
61879;PMS7003;47817;52.798;27.544;2023-07-31T22:10:59;5.2;3.2;2.8
61879;PMS7003;47817;52.798;27.544;2023-07-31T22:15:17;5.2;4.4;3.6
61879;PMS7003;47817;52.798;27.544;2023-07-31T22:20:59;3.8;3.8;2.8
61879;PMS7003;47817;52.798;27.544;2023-07-31T22:25:27;4.8;3.8;3.3
61879;PMS7003;47817;52.798;27.544;2023-07-31T22:30:29;4.2;3;2.4
61879;PMS7003;47817;52.798;27.544;2023-07-31T22:35:43;3;3;2.6
61879;PMS7003;47817;52.798;27.544;2023-07-31T22:40:41;3.6;2.8;2.6
61879;PMS7003;47817;52.798;27.544;2023-07-31T22:45:33;4.4;3.6;3
61879;PMS7003;47817;52.798;27.544;2023-07-31T22:50:43;4.6;3.4;2.8
61879;PMS7003;47817;52.798;27.544;2023-07-31T22:56:01;3.8;3;2.6
61879;PMS7003;47817;52.798;27.544;2023-07-31T23:00:14;4.6;3.2;2.8
61879;PMS7003;47817;52.798;27.544;2023-07-31T23:05:59;3.8;3;2.5
61879;PMS7003;47817;52.798;27.544;2023-07-31T23:10:33;5.4;3.8;3
61879;PMS7003;47817;52.798;27.544;2023-07-31T23:15:59;3.6;3;2.6
61879;PMS7003;47817;52.798;27.544;2023-07-31T23:20:48;5;3.8;3.2
61879;PMS7003;47817;52.798;27.544;2023-07-31T23:25:33;4.3;4;3.3
61879;PMS7003;47817;52.798;27.544;2023-07-31T23:30:33;3.6;2.6;2.6
61879;PMS7003;47817;52.798;27.544;2023-07-31T23:35:13;3.6;2.8;2.6
61879;PMS7003;47817;52.798;27.544;2023-07-31T23:40:59;5.4;4;3.2
61879;PMS7003;47817;52.798;27.544;2023-07-31T23:45:43;4.8;3.2;3
61879;PMS7003;47817;52.798;27.544;2023-07-31T23:50:31;5.2;4.6;3.6
61879;PMS7003;47817;52.798;27.544;2023-07-31T23:55:27;5.2;3.6;3.2
